sensor_id;sensor_type;location;lat;lon;timestamp;P1;durP1;ratioP1;P2;durP2;ratioP2
18887;SDS011;9576;47.792;9.628;2022-07-29T00:02:27;1.70;;;1.45;;
18887;SDS011;9576;47.792;9.628;2022-07-29T00:05:29;2.15;;;1.15;;
18887;SDS011;9576;47.792;9.628;2022-07-29T00:08:32;2.88;;;1.30;;
18887;SDS011;9576;47.792;9.628;2022-07-29T00:11:34;3.47;;;1.20;;
18887;SDS011;9576;47.792;9.628;2022-07-29T00:14:37;1.95;;;1.58;;
18887;SDS011;9576;47.792;9.628;2022-07-29T00:17:39;2.55;;;1.60;;
18887;SDS011;9576;47.792;9.628;2022-07-29T00:20:41;3.95;;;1.65;;
18887;SDS011;9576;47.792;9.628;2022-07-29T00:23:44;2.90;;;2.00;;
18887;SDS011;9576;47.792;9.628;2022-07-29T00:26:46;6.45;;;2.40;;
18887;SDS011;9576;47.792;9.628;2022-07-29T00:29:49;7.72;;;3.03;;
18887;SDS011;9576;47.792;9.628;2022-07-29T00:32:51;3.97;;;2.25;;
18887;SDS011;9576;47.792;9.628;2022-07-29T00:35:53;5.85;;;2.58;;
18887;SDS011;9576;47.792;9.628;2022-07-29T00:38:56;3.55;;;2.88;;
18887;SDS011;9576;47.792;9.628;2022-07-29T00:41:58;5.15;;;3.25;;
18887;SDS011;9576;47.792;9.628;2022-07-29T00:45:01;3.97;;;2.80;;
18887;SDS011;9576;47.792;9.628;2022-07-29T00:48:04;5.28;;;3.15;;
18887;SDS011;9576;47.792;9.628;2022-07-29T00:51:08;8.35;;;2.97;;
18887;SDS011;9576;47.792;9.628;2022-07-29T00:54:11;3.75;;;2.08;;
18887;SDS011;9576;47.792;9.628;2022-07-29T00:57:14;5.28;;;2.40;;
18887;SDS011;9576;47.792;9.628;2022-07-29T01:00:18;5.40;;;2.13;;
18887;SDS011;9576;47.792;9.628;2022-07-29T01:03:23;5.78;;;3.45;;
18887;SDS011;9576;47.792;9.628;2022-07-29T01:06:25;6.20;;;3.72;;
18887;SDS011;9576;47.792;9.628;2022-07-29T01:09:28;8.05;;;3.22;;
18887;SDS011;9576;47.792;9.628;2022-07-29T01:12:30;4.80;;;2.40;;
18887;SDS011;9576;47.792;9.628;2022-07-29T01:15:37;3.90;;;2.67;;
18887;SDS011;9576;47.792;9.628;2022-07-29T01:18:46;3.65;;;2.30;;
18887;SDS011;9576;47.792;9.628;2022-07-29T01:21:53;9.50;;;1.80;;
18887;SDS011;9576;47.792;9.628;2022-07-29T01:25:03;1.80;;;1.30;;
18887;SDS011;9576;47.792;9.628;2022-07-29T01:28:37;3.17;;;2.13;;
18887;SDS011;9576;47.792;9.628;2022-07-29T01:31:49;3.60;;;2.00;;
18887;SDS011;9576;47.792;9.628;2022-07-29T01:34:58;4.47;;;1.88;;
18887;SDS011;9576;47.792;9.628;2022-07-29T01:38:05;4.07;;;2.00;;
18887;SDS011;9576;47.792;9.628;2022-07-29T01:41:12;3.10;;;1.75;;
18887;SDS011;9576;47.792;9.628;2022-07-29T01:44:20;1.88;;;1.45;;
18887;SDS011;9576;47.792;9.628;2022-07-29T01:47:26;2.47;;;1.88;;
18887;SDS011;9576;47.792;9.628;2022-07-29T01:50:34;5.05;;;2.15;;
18887;SDS011;9576;47.792;9.628;2022-07-29T01:53:47;5.65;;;1.63;;
18887;SDS011;9576;47.792;9.628;2022-07-29T01:56:55;3.53;;;1.75;;
18887;SDS011;9576;47.792;9.628;2022-07-29T02:00:00;3.45;;;1.83;;
18887;SDS011;9576;47.792;9.628;2022-07-29T02:03:07;2.28;;;1.60;;
18887;SDS011;9576;47.792;9.628;2022-07-29T02:06:12;3.65;;;1.90;;
18887;SDS011;9576;47.792;9.628;2022-07-29T02:09:17;3.70;;;1.88;;
18887;SDS011;9576;47.792;9.628;2022-07-29T02:15:27;2.83;;;1.90;;
18887;SDS011;9576;47.792;9.628;2022-07-29T02:18:31;2.70;;;1.60;;
18887;SDS011;9576;47.792;9.628;2022-07-29T02:21:37;3.20;;;1.98;;
18887;SDS011;9576;47.792;9.628;2022-07-29T02:24:40;11.98;;;1.83;;
18887;SDS011;9576;47.792;9.628;2022-07-29T02:27:43;4.53;;;2.00;;
18887;SDS011;9576;47.792;9.628;2022-07-29T02:30:48;3.15;;;1.55;;
18887;SDS011;9576;47.792;9.628;2022-07-29T02:33:52;5.88;;;1.85;;
18887;SDS011;9576;47.792;9.628;2022-07-29T02:36:56;3.75;;;1.92;;
18887;SDS011;9576;47.792;9.628;2022-07-29T02:39:59;2.55;;;1.95;;
18887;SDS011;9576;47.792;9.628;2022-07-29T02:43:02;5.18;;;2.28;;
18887;SDS011;9576;47.792;9.628;2022-07-29T02:46:08;2.53;;;2.10;;
18887;SDS011;9576;47.792;9.628;2022-07-29T02:49:15;3.38;;;2.67;;
18887;SDS011;9576;47.792;9.628;2022-07-29T02:52:24;3.00;;;1.73;;
18887;SDS011;9576;47.792;9.628;2022-07-29T02:55:33;2.85;;;2.22;;
18887;SDS011;9576;47.792;9.628;2022-07-29T02:58:39;4.88;;;2.78;;
18887;SDS011;9576;47.792;9.628;2022-07-29T03:01:45;6.03;;;2.33;;
18887;SDS011;9576;47.792;9.628;2022-07-29T03:04:48;3.47;;;2.23;;
18887;SDS011;9576;47.792;9.628;2022-07-29T03:07:52;6.33;;;1.93;;
18887;SDS011;9576;47.792;9.628;2022-07-29T03:10:57;10.38;;;2.53;;
18887;SDS011;9576;47.792;9.628;2022-07-29T03:13:59;5.25;;;2.08;;
18887;SDS011;9576;47.792;9.628;2022-07-29T03:17:04;7.40;;;2.50;;
18887;SDS011;9576;47.792;9.628;2022-07-29T03:20:06;5.23;;;2.43;;
18887;SDS011;9576;47.792;9.628;2022-07-29T03:23:10;5.13;;;2.70;;
18887;SDS011;9576;47.792;9.628;2022-07-29T03:26:12;3.50;;;2.28;;
18887;SDS011;9576;47.792;9.628;2022-07-29T03:29:15;4.07;;;2.40;;
18887;SDS011;9576;47.792;9.628;2022-07-29T03:32:18;3.28;;;2.20;;
18887;SDS011;9576;47.792;9.628;2022-07-29T03:35:20;3.00;;;2.17;;
18887;SDS011;9576;47.792;9.628;2022-07-29T03:38:23;5.88;;;2.70;;
18887;SDS011;9576;47.792;9.628;2022-07-29T03:41:28;5.40;;;2.80;;
18887;SDS011;9576;47.792;9.628;2022-07-29T03:44:32;7.53;;;2.80;;
18887;SDS011;9576;47.792;9.628;2022-07-29T03:47:39;4.07;;;2.63;;
18887;SDS011;9576;47.792;9.628;2022-07-29T03:50:46;3.00;;;2.47;;
18887;SDS011;9576;47.792;9.628;2022-07-29T03:53:49;3.85;;;2.40;;
18887;SDS011;9576;47.792;9.628;2022-07-29T03:56:51;2.72;;;2.30;;
18887;SDS011;9576;47.792;9.628;2022-07-29T03:59:55;5.00;;;2.50;;
18887;SDS011;9576;47.792;9.628;2022-07-29T04:02:59;3.05;;;2.30;;
18887;SDS011;9576;47.792;9.628;2022-07-29T04:06:03;4.00;;;3.53;;
18887;SDS011;9576;47.792;9.628;2022-07-29T04:09:07;5.47;;;2.70;;
18887;SDS011;9576;47.792;9.628;2022-07-29T04:12:10;12.55;;;3.33;;
18887;SDS011;9576;47.792;9.628;2022-07-29T04:15:12;5.43;;;3.60;;
18887;SDS011;9576;47.792;9.628;2022-07-29T04:18:15;7.97;;;2.92;;
18887;SDS011;9576;47.792;9.628;2022-07-29T04:21:17;8.45;;;3.78;;
18887;SDS011;9576;47.792;9.628;2022-07-29T04:24:19;3.97;;;3.17;;
18887;SDS011;9576;47.792;9.628;2022-07-29T04:27:22;4.50;;;3.35;;
18887;SDS011;9576;47.792;9.628;2022-07-29T04:30:24;9.60;;;3.47;;
18887;SDS011;9576;47.792;9.628;2022-07-29T04:33:27;8.77;;;3.33;;
18887;SDS011;9576;47.792;9.628;2022-07-29T04:36:29;5.18;;;2.90;;
18887;SDS011;9576;47.792;9.628;2022-07-29T04:39:31;7.38;;;2.58;;
18887;SDS011;9576;47.792;9.628;2022-07-29T04:42:33;5.60;;;2.97;;
18887;SDS011;9576;47.792;9.628;2022-07-29T04:45:36;6.40;;;2.72;;
18887;SDS011;9576;47.792;9.628;2022-07-29T04:48:39;3.67;;;2.10;;
18887;SDS011;9576;47.792;9.628;2022-07-29T04:51:41;4.07;;;2.55;;
18887;SDS011;9576;47.792;9.628;2022-07-29T04:54:43;4.95;;;2.70;;
18887;SDS011;9576;47.792;9.628;2022-07-29T04:57:46;4.20;;;2.42;;
18887;SDS011;9576;47.792;9.628;2022-07-29T05:00:48;2.50;;;2.13;;
18887;SDS011;9576;47.792;9.628;2022-07-29T05:03:51;5.07;;;3.10;;
18887;SDS011;9576;47.792;9.628;2022-07-29T05:06:53;12.23;;;3.25;;
18887;SDS011;9576;47.792;9.628;2022-07-29T05:09:55;8.52;;;3.20;;
18887;SDS011;9576;47.792;9.628;2022-07-29T05:12:58;14.20;;;3.25;;
18887;SDS011;9576;47.792;9.628;2022-07-29T05:16:00;11.25;;;3.90;;
18887;SDS011;9576;47.792;9.628;2022-07-29T05:19:04;13.13;;;3.05;;
18887;SDS011;9576;47.792;9.628;2022-07-29T05:22:06;10.90;;;3.13;;
18887;SDS011;9576;47.792;9.628;2022-07-29T05:25:08;18.10;;;4.10;;
18887;SDS011;9576;47.792;9.628;2022-07-29T05:28:10;6.95;;;2.88;;
18887;SDS011;9576;47.792;9.628;2022-07-29T05:31:13;6.53;;;3.22;;
18887;SDS011;9576;47.792;9.628;2022-07-29T05:34:17;7.72;;;2.90;;
18887;SDS011;9576;47.792;9.628;2022-07-29T05:37:19;8.90;;;3.40;;
18887;SDS011;9576;47.792;9.628;2022-07-29T05:40:21;5.38;;;2.97;;
18887;SDS011;9576;47.792;9.628;2022-07-29T05:43:24;13.05;;;3.25;;
18887;SDS011;9576;47.792;9.628;2022-07-29T05:46:26;4.95;;;3.38;;
18887;SDS011;9576;47.792;9.628;2022-07-29T05:49:29;6.85;;;2.95;;
18887;SDS011;9576;47.792;9.628;2022-07-29T05:52:31;4.35;;;3.08;;
18887;SDS011;9576;47.792;9.628;2022-07-29T05:55:34;7.53;;;3.10;;
18887;SDS011;9576;47.792;9.628;2022-07-29T05:58:36;4.82;;;3.25;;
18887;SDS011;9576;47.792;9.628;2022-07-29T06:01:38;8.60;;;3.00;;
18887;SDS011;9576;47.792;9.628;2022-07-29T06:04:43;5.32;;;3.30;;
18887;SDS011;9576;47.792;9.628;2022-07-29T06:07:45;10.38;;;3.60;;
18887;SDS011;9576;47.792;9.628;2022-07-29T06:10:47;11.65;;;3.13;;
18887;SDS011;9576;47.792;9.628;2022-07-29T06:13:49;4.90;;;3.00;;
18887;SDS011;9576;47.792;9.628;2022-07-29T06:16:51;5.45;;;3.00;;
18887;SDS011;9576;47.792;9.628;2022-07-29T06:19:55;11.68;;;3.35;;
18887;SDS011;9576;47.792;9.628;2022-07-29T06:22:57;3.20;;;2.65;;
18887;SDS011;9576;47.792;9.628;2022-07-29T06:26:00;4.55;;;2.78;;
18887;SDS011;9576;47.792;9.628;2022-07-29T06:29:02;5.20;;;2.60;;
18887;SDS011;9576;47.792;9.628;2022-07-29T06:32:05;6.30;;;2.83;;
18887;SDS011;9576;47.792;9.628;2022-07-29T06:35:10;3.17;;;2.77;;
18887;SDS011;9576;47.792;9.628;2022-07-29T06:38:12;5.53;;;3.28;;
18887;SDS011;9576;47.792;9.628;2022-07-29T06:41:15;2.88;;;2.20;;
18887;SDS011;9576;47.792;9.628;2022-07-29T06:44:17;4.78;;;2.75;;
18887;SDS011;9576;47.792;9.628;2022-07-29T06:47:20;6.72;;;2.60;;
18887;SDS011;9576;47.792;9.628;2022-07-29T06:50:23;6.32;;;3.00;;
18887;SDS011;9576;47.792;9.628;2022-07-29T06:53:25;8.00;;;3.25;;
18887;SDS011;9576;47.792;9.628;2022-07-29T06:56:28;15.90;;;2.85;;
18887;SDS011;9576;47.792;9.628;2022-07-29T06:59:30;10.48;;;2.80;;
18887;SDS011;9576;47.792;9.628;2022-07-29T07:02:32;6.95;;;2.72;;
18887;SDS011;9576;47.792;9.628;2022-07-29T07:05:36;6.50;;;2.83;;
18887;SDS011;9576;47.792;9.628;2022-07-29T07:08:38;3.83;;;2.77;;
18887;SDS011;9576;47.792;9.628;2022-07-29T07:11:41;11.68;;;2.20;;
18887;SDS011;9576;47.792;9.628;2022-07-29T07:14:43;3.75;;;2.35;;
18887;SDS011;9576;47.792;9.628;2022-07-29T07:17:45;3.55;;;2.20;;
18887;SDS011;9576;47.792;9.628;2022-07-29T07:20:48;4.28;;;2.70;;
18887;SDS011;9576;47.792;9.628;2022-07-29T07:23:50;3.53;;;2.65;;
18887;SDS011;9576;47.792;9.628;2022-07-29T07:26:53;4.53;;;2.10;;
18887;SDS011;9576;47.792;9.628;2022-07-29T07:29:55;5.72;;;2.42;;
18887;SDS011;9576;47.792;9.628;2022-07-29T07:32:57;3.33;;;1.95;;
18887;SDS011;9576;47.792;9.628;2022-07-29T07:36:02;5.57;;;1.90;;
18887;SDS011;9576;47.792;9.628;2022-07-29T07:39:04;5.40;;;1.77;;
18887;SDS011;9576;47.792;9.628;2022-07-29T07:42:06;6.93;;;2.20;;
18887;SDS011;9576;47.792;9.628;2022-07-29T07:45:10;2.78;;;1.38;;
18887;SDS011;9576;47.792;9.628;2022-07-29T07:48:12;10.77;;;1.83;;
18887;SDS011;9576;47.792;9.628;2022-07-29T07:51:16;3.47;;;1.30;;
18887;SDS011;9576;47.792;9.628;2022-07-29T07:54:18;2.30;;;1.73;;
18887;SDS011;9576;47.792;9.628;2022-07-29T07:57:20;11.00;;;1.83;;
18887;SDS011;9576;47.792;9.628;2022-07-29T08:00:22;3.42;;;2.00;;
18887;SDS011;9576;47.792;9.628;2022-07-29T08:03:25;8.23;;;1.92;;
18887;SDS011;9576;47.792;9.628;2022-07-29T08:06:28;5.80;;;2.22;;
18887;SDS011;9576;47.792;9.628;2022-07-29T08:09:31;2.13;;;1.65;;
18887;SDS011;9576;47.792;9.628;2022-07-29T08:12:33;2.50;;;1.77;;
18887;SDS011;9576;47.792;9.628;2022-07-29T08:15:35;3.47;;;1.77;;
18887;SDS011;9576;47.792;9.628;2022-07-29T08:18:38;6.10;;;2.50;;
18887;SDS011;9576;47.792;9.628;2022-07-29T08:21:42;6.30;;;2.35;;
18887;SDS011;9576;47.792;9.628;2022-07-29T08:24:44;3.55;;;1.98;;
18887;SDS011;9576;47.792;9.628;2022-07-29T08:27:52;3.67;;;1.83;;
18887;SDS011;9576;47.792;9.628;2022-07-29T08:30:54;10.07;;;2.10;;
18887;SDS011;9576;47.792;9.628;2022-07-29T08:33:56;11.85;;;1.70;;
18887;SDS011;9576;47.792;9.628;2022-07-29T08:37:01;5.18;;;2.35;;
18887;SDS011;9576;47.792;9.628;2022-07-29T08:40:03;12.38;;;2.00;;
18887;SDS011;9576;47.792;9.628;2022-07-29T08:43:07;2.85;;;1.58;;
18887;SDS011;9576;47.792;9.628;2022-07-29T08:46:09;3.30;;;2.30;;
18887;SDS011;9576;47.792;9.628;2022-07-29T08:49:11;3.53;;;2.08;;
18887;SDS011;9576;47.792;9.628;2022-07-29T08:52:15;4.82;;;2.45;;
18887;SDS011;9576;47.792;9.628;2022-07-29T08:55:18;3.90;;;2.38;;
18887;SDS011;9576;47.792;9.628;2022-07-29T08:58:21;5.03;;;3.00;;
18887;SDS011;9576;47.792;9.628;2022-07-29T09:01:25;4.18;;;2.20;;
18887;SDS011;9576;47.792;9.628;2022-07-29T09:04:31;4.25;;;2.40;;
18887;SDS011;9576;47.792;9.628;2022-07-29T09:07:40;4.18;;;1.67;;
18887;SDS011;9576;47.792;9.628;2022-07-29T09:10:44;5.50;;;2.72;;
18887;SDS011;9576;47.792;9.628;2022-07-29T09:13:46;3.42;;;1.95;;
18887;SDS011;9576;47.792;9.628;2022-07-29T09:16:50;5.57;;;2.25;;
18887;SDS011;9576;47.792;9.628;2022-07-29T09:19:56;7.30;;;2.28;;
18887;SDS011;9576;47.792;9.628;2022-07-29T09:23:12;4.38;;;1.75;;
18887;SDS011;9576;47.792;9.628;2022-07-29T09:26:14;7.15;;;1.88;;
18887;SDS011;9576;47.792;9.628;2022-07-29T09:29:17;2.67;;;2.13;;
18887;SDS011;9576;47.792;9.628;2022-07-29T09:32:21;8.88;;;1.75;;
18887;SDS011;9576;47.792;9.628;2022-07-29T09:35:24;2.60;;;2.03;;
18887;SDS011;9576;47.792;9.628;2022-07-29T09:38:28;6.35;;;1.92;;
18887;SDS011;9576;47.792;9.628;2022-07-29T09:41:30;6.82;;;2.53;;
18887;SDS011;9576;47.792;9.628;2022-07-29T09:44:49;3.17;;;2.17;;
18887;SDS011;9576;47.792;9.628;2022-07-29T09:47:51;3.30;;;2.15;;
18887;SDS011;9576;47.792;9.628;2022-07-29T09:50:54;5.03;;;2.35;;
18887;SDS011;9576;47.792;9.628;2022-07-29T09:53:59;4.53;;;2.37;;
18887;SDS011;9576;47.792;9.628;2022-07-29T09:57:04;5.75;;;2.03;;
18887;SDS011;9576;47.792;9.628;2022-07-29T10:00:10;3.30;;;1.95;;
18887;SDS011;9576;47.792;9.628;2022-07-29T10:03:15;7.95;;;2.00;;
18887;SDS011;9576;47.792;9.628;2022-07-29T10:06:17;3.00;;;2.40;;
18887;SDS011;9576;47.792;9.628;2022-07-29T10:09:21;13.43;;;2.53;;
18887;SDS011;9576;47.792;9.628;2022-07-29T10:12:23;5.05;;;2.30;;
18887;SDS011;9576;47.792;9.628;2022-07-29T10:15:26;6.50;;;3.38;;
18887;SDS011;9576;47.792;9.628;2022-07-29T10:18:39;9.23;;;3.08;;
18887;SDS011;9576;47.792;9.628;2022-07-29T10:21:42;5.00;;;2.90;;
18887;SDS011;9576;47.792;9.628;2022-07-29T10:24:46;6.22;;;3.10;;
18887;SDS011;9576;47.792;9.628;2022-07-29T10:27:48;4.88;;;2.70;;
18887;SDS011;9576;47.792;9.628;2022-07-29T10:30:52;5.53;;;2.67;;
18887;SDS011;9576;47.792;9.628;2022-07-29T10:34:03;4.85;;;2.78;;
18887;SDS011;9576;47.792;9.628;2022-07-29T10:37:11;5.20;;;3.00;;
18887;SDS011;9576;47.792;9.628;2022-07-29T10:40:25;11.85;;;2.40;;
18887;SDS011;9576;47.792;9.628;2022-07-29T10:43:48;4.90;;;2.42;;
18887;SDS011;9576;47.792;9.628;2022-07-29T10:46:51;4.43;;;2.97;;
18887;SDS011;9576;47.792;9.628;2022-07-29T10:49:57;3.35;;;2.25;;
18887;SDS011;9576;47.792;9.628;2022-07-29T10:53:00;15.07;;;3.70;;
18887;SDS011;9576;47.792;9.628;2022-07-29T10:56:04;3.88;;;2.58;;
18887;SDS011;9576;47.792;9.628;2022-07-29T10:59:26;3.35;;;2.20;;
18887;SDS011;9576;47.792;9.628;2022-07-29T11:02:46;5.78;;;2.28;;
18887;SDS011;9576;47.792;9.628;2022-07-29T11:05:54;4.70;;;2.30;;
18887;SDS011;9576;47.792;9.628;2022-07-29T11:09:14;3.95;;;2.50;;
18887;SDS011;9576;47.792;9.628;2022-07-29T11:15:52;3.03;;;2.05;;
18887;SDS011;9576;47.792;9.628;2022-07-29T11:22:32;5.10;;;2.42;;
18887;SDS011;9576;47.792;9.628;2022-07-29T11:25:35;5.15;;;2.20;;
18887;SDS011;9576;47.792;9.628;2022-07-29T11:28:39;4.47;;;2.67;;
18887;SDS011;9576;47.792;9.628;2022-07-29T11:31:52;5.38;;;2.65;;
18887;SDS011;9576;47.792;9.628;2022-07-29T11:35:11;4.80;;;3.05;;
18887;SDS011;9576;47.792;9.628;2022-07-29T11:38:24;3.15;;;2.35;;
18887;SDS011;9576;47.792;9.628;2022-07-29T11:41:27;4.85;;;2.33;;
18887;SDS011;9576;47.792;9.628;2022-07-29T11:47:58;3.75;;;2.42;;
18887;SDS011;9576;47.792;9.628;2022-07-29T11:51:01;4.80;;;2.40;;
18887;SDS011;9576;47.792;9.628;2022-07-29T11:54:11;4.70;;;2.40;;
18887;SDS011;9576;47.792;9.628;2022-07-29T11:57:19;3.92;;;2.30;;
18887;SDS011;9576;47.792;9.628;2022-07-29T12:00:28;6.38;;;2.08;;
18887;SDS011;9576;47.792;9.628;2022-07-29T12:03:31;3.40;;;2.30;;
18887;SDS011;9576;47.792;9.628;2022-07-29T12:06:34;4.13;;;2.25;;
18887;SDS011;9576;47.792;9.628;2022-07-29T12:09:37;7.30;;;2.53;;
18887;SDS011;9576;47.792;9.628;2022-07-29T12:12:39;4.32;;;2.33;;
18887;SDS011;9576;47.792;9.628;2022-07-29T12:15:50;2.50;;;2.05;;
18887;SDS011;9576;47.792;9.628;2022-07-29T12:18:57;5.50;;;2.88;;
18887;SDS011;9576;47.792;9.628;2022-07-29T12:21:59;5.30;;;3.15;;
18887;SDS011;9576;47.792;9.628;2022-07-29T12:25:03;4.20;;;3.00;;
18887;SDS011;9576;47.792;9.628;2022-07-29T12:28:07;3.10;;;2.40;;
18887;SDS011;9576;47.792;9.628;2022-07-29T12:31:14;5.32;;;2.33;;
18887;SDS011;9576;47.792;9.628;2022-07-29T12:34:16;8.43;;;2.85;;
18887;SDS011;9576;47.792;9.628;2022-07-29T12:37:19;7.40;;;2.60;;
18887;SDS011;9576;47.792;9.628;2022-07-29T12:40:21;3.13;;;2.22;;
18887;SDS011;9576;47.792;9.628;2022-07-29T12:43:24;12.45;;;2.88;;
18887;SDS011;9576;47.792;9.628;2022-07-29T12:46:28;3.00;;;2.22;;
18887;SDS011;9576;47.792;9.628;2022-07-29T12:49:30;4.93;;;2.63;;
18887;SDS011;9576;47.792;9.628;2022-07-29T12:52:32;5.65;;;3.00;;
18887;SDS011;9576;47.792;9.628;2022-07-29T12:55:38;3.33;;;2.35;;
18887;SDS011;9576;47.792;9.628;2022-07-29T12:58:42;2.60;;;2.20;;
18887;SDS011;9576;47.792;9.628;2022-07-29T13:01:46;4.32;;;2.60;;
18887;SDS011;9576;47.792;9.628;2022-07-29T13:04:54;6.38;;;2.58;;
18887;SDS011;9576;47.792;9.628;2022-07-29T13:08:09;3.88;;;2.25;;
18887;SDS011;9576;47.792;9.628;2022-07-29T13:11:26;2.97;;;2.20;;
18887;SDS011;9576;47.792;9.628;2022-07-29T13:14:30;4.55;;;3.10;;
18887;SDS011;9576;47.792;9.628;2022-07-29T13:17:35;3.47;;;2.20;;
18887;SDS011;9576;47.792;9.628;2022-07-29T13:20:42;4.80;;;2.97;;
18887;SDS011;9576;47.792;9.628;2022-07-29T13:23:44;5.30;;;2.60;;
18887;SDS011;9576;47.792;9.628;2022-07-29T13:26:46;4.25;;;2.58;;
18887;SDS011;9576;47.792;9.628;2022-07-29T13:29:48;4.95;;;2.83;;
18887;SDS011;9576;47.792;9.628;2022-07-29T13:32:53;4.75;;;2.78;;
18887;SDS011;9576;47.792;9.628;2022-07-29T13:35:56;4.13;;;2.72;;
18887;SDS011;9576;47.792;9.628;2022-07-29T13:38:58;7.57;;;2.55;;
18887;SDS011;9576;47.792;9.628;2022-07-29T13:42:02;2.60;;;2.22;;
18887;SDS011;9576;47.792;9.628;2022-07-29T13:45:05;4.80;;;2.55;;
18887;SDS011;9576;47.792;9.628;2022-07-29T13:48:09;3.70;;;2.38;;
18887;SDS011;9576;47.792;9.628;2022-07-29T13:51:12;3.53;;;2.25;;
18887;SDS011;9576;47.792;9.628;2022-07-29T13:54:14;4.30;;;2.83;;
18887;SDS011;9576;47.792;9.628;2022-07-29T13:57:16;3.15;;;2.53;;
18887;SDS011;9576;47.792;9.628;2022-07-29T14:00:27;7.00;;;2.70;;
18887;SDS011;9576;47.792;9.628;2022-07-29T14:03:30;10.23;;;2.83;;
18887;SDS011;9576;47.792;9.628;2022-07-29T14:06:33;9.23;;;3.27;;
18887;SDS011;9576;47.792;9.628;2022-07-29T14:09:36;4.70;;;2.90;;
18887;SDS011;9576;47.792;9.628;2022-07-29T14:12:38;8.73;;;3.42;;
18887;SDS011;9576;47.792;9.628;2022-07-29T14:15:41;5.20;;;3.42;;
18887;SDS011;9576;47.792;9.628;2022-07-29T14:18:45;5.10;;;4.07;;
18887;SDS011;9576;47.792;9.628;2022-07-29T14:21:47;4.28;;;3.45;;
18887;SDS011;9576;47.792;9.628;2022-07-29T14:24:49;4.88;;;3.20;;
18887;SDS011;9576;47.792;9.628;2022-07-29T14:27:52;5.28;;;2.90;;
18887;SDS011;9576;47.792;9.628;2022-07-29T14:30:54;7.05;;;2.80;;
18887;SDS011;9576;47.792;9.628;2022-07-29T14:33:57;7.63;;;3.08;;
18887;SDS011;9576;47.792;9.628;2022-07-29T14:37:00;6.40;;;3.55;;
18887;SDS011;9576;47.792;9.628;2022-07-29T14:40:03;6.97;;;4.00;;
18887;SDS011;9576;47.792;9.628;2022-07-29T14:43:06;9.10;;;2.92;;
18887;SDS011;9576;47.792;9.628;2022-07-29T14:46:08;4.70;;;3.25;;
18887;SDS011;9576;47.792;9.628;2022-07-29T14:49:11;10.90;;;3.42;;
18887;SDS011;9576;47.792;9.628;2022-07-29T14:52:14;4.05;;;2.80;;
18887;SDS011;9576;47.792;9.628;2022-07-29T14:55:16;4.00;;;3.03;;
18887;SDS011;9576;47.792;9.628;2022-07-29T14:58:18;8.10;;;3.10;;
18887;SDS011;9576;47.792;9.628;2022-07-29T15:01:22;3.80;;;2.88;;
18887;SDS011;9576;47.792;9.628;2022-07-29T15:04:26;7.05;;;1.63;;
18887;SDS011;9576;47.792;9.628;2022-07-29T15:07:28;6.13;;;1.17;;
18887;SDS011;9576;47.792;9.628;2022-07-29T15:10:31;8.75;;;1.63;;
18887;SDS011;9576;47.792;9.628;2022-07-29T15:13:33;1.42;;;1.05;;
18887;SDS011;9576;47.792;9.628;2022-07-29T15:16:35;1.73;;;1.20;;
18887;SDS011;9576;47.792;9.628;2022-07-29T15:19:39;1.33;;;1.23;;
18887;SDS011;9576;47.792;9.628;2022-07-29T15:22:41;3.85;;;1.75;;
18887;SDS011;9576;47.792;9.628;2022-07-29T15:25:44;16.73;;;3.28;;
18887;SDS011;9576;47.792;9.628;2022-07-29T15:28:46;11.60;;;3.45;;
18887;SDS011;9576;47.792;9.628;2022-07-29T15:31:48;12.20;;;3.92;;
18887;SDS011;9576;47.792;9.628;2022-07-29T15:34:52;9.63;;;3.13;;
18887;SDS011;9576;47.792;9.628;2022-07-29T15:37:54;8.63;;;3.13;;
18887;SDS011;9576;47.792;9.628;2022-07-29T15:40:56;5.38;;;2.63;;
18887;SDS011;9576;47.792;9.628;2022-07-29T15:43:58;6.72;;;2.40;;
18887;SDS011;9576;47.792;9.628;2022-07-29T15:47:00;9.98;;;2.95;;
18887;SDS011;9576;47.792;9.628;2022-07-29T15:50:08;5.30;;;2.92;;
18887;SDS011;9576;47.792;9.628;2022-07-29T15:53:14;6.60;;;3.08;;
18887;SDS011;9576;47.792;9.628;2022-07-29T15:56:16;6.35;;;3.30;;
18887;SDS011;9576;47.792;9.628;2022-07-29T15:59:19;4.40;;;3.30;;
18887;SDS011;9576;47.792;9.628;2022-07-29T16:02:21;7.35;;;4.45;;
18887;SDS011;9576;47.792;9.628;2022-07-29T16:05:24;6.22;;;3.88;;
18887;SDS011;9576;47.792;9.628;2022-07-29T16:08:28;9.55;;;3.45;;
18887;SDS011;9576;47.792;9.628;2022-07-29T16:11:30;5.70;;;3.47;;
18887;SDS011;9576;47.792;9.628;2022-07-29T16:14:33;15.57;;;4.07;;
18887;SDS011;9576;47.792;9.628;2022-07-29T16:17:35;10.55;;;4.03;;
18887;SDS011;9576;47.792;9.628;2022-07-29T16:20:39;6.65;;;3.60;;
18887;SDS011;9576;47.792;9.628;2022-07-29T16:23:41;9.80;;;4.00;;
18887;SDS011;9576;47.792;9.628;2022-07-29T16:26:44;5.57;;;4.03;;
18887;SDS011;9576;47.792;9.628;2022-07-29T16:29:46;9.50;;;4.93;;
18887;SDS011;9576;47.792;9.628;2022-07-29T16:32:49;7.10;;;4.63;;
18887;SDS011;9576;47.792;9.628;2022-07-29T16:35:53;5.95;;;3.72;;
18887;SDS011;9576;47.792;9.628;2022-07-29T16:38:55;7.45;;;5.45;;
18887;SDS011;9576;47.792;9.628;2022-07-29T16:41:57;8.05;;;4.40;;
18887;SDS011;9576;47.792;9.628;2022-07-29T16:44:59;9.68;;;5.03;;
18887;SDS011;9576;47.792;9.628;2022-07-29T16:48:01;12.85;;;5.10;;
18887;SDS011;9576;47.792;9.628;2022-07-29T16:51:05;12.68;;;5.00;;
18887;SDS011;9576;47.792;9.628;2022-07-29T16:54:08;10.70;;;4.70;;
18887;SDS011;9576;47.792;9.628;2022-07-29T16:57:10;10.70;;;4.03;;
18887;SDS011;9576;47.792;9.628;2022-07-29T17:00:13;8.32;;;3.90;;
18887;SDS011;9576;47.792;9.628;2022-07-29T17:03:17;5.28;;;4.18;;
18887;SDS011;9576;47.792;9.628;2022-07-29T17:06:20;9.13;;;4.15;;
18887;SDS011;9576;47.792;9.628;2022-07-29T17:09:23;8.15;;;4.15;;
18887;SDS011;9576;47.792;9.628;2022-07-29T17:12:25;8.00;;;4.18;;
18887;SDS011;9576;47.792;9.628;2022-07-29T17:15:27;12.68;;;4.55;;
18887;SDS011;9576;47.792;9.628;2022-07-29T17:18:29;4.70;;;3.80;;
18887;SDS011;9576;47.792;9.628;2022-07-29T17:21:33;16.05;;;3.95;;
18887;SDS011;9576;47.792;9.628;2022-07-29T17:24:35;12.55;;;4.30;;
18887;SDS011;9576;47.792;9.628;2022-07-29T17:27:38;5.38;;;3.50;;
18887;SDS011;9576;47.792;9.628;2022-07-29T17:30:41;4.55;;;3.95;;
18887;SDS011;9576;47.792;9.628;2022-07-29T17:33:43;4.95;;;4.10;;
18887;SDS011;9576;47.792;9.628;2022-07-29T17:36:47;5.25;;;3.55;;
18887;SDS011;9576;47.792;9.628;2022-07-29T17:39:49;5.70;;;3.88;;
18887;SDS011;9576;47.792;9.628;2022-07-29T17:42:51;5.00;;;3.72;;
18887;SDS011;9576;47.792;9.628;2022-07-29T17:45:53;6.85;;;3.80;;
18887;SDS011;9576;47.792;9.628;2022-07-29T17:48:56;6.32;;;3.55;;
18887;SDS011;9576;47.792;9.628;2022-07-29T17:51:59;6.32;;;4.90;;
18887;SDS011;9576;47.792;9.628;2022-07-29T17:55:01;7.53;;;4.35;;
18887;SDS011;9576;47.792;9.628;2022-07-29T17:58:04;11.48;;;4.60;;
18887;SDS011;9576;47.792;9.628;2022-07-29T18:01:08;7.67;;;5.40;;
18887;SDS011;9576;47.792;9.628;2022-07-29T18:04:10;8.57;;;4.50;;
18887;SDS011;9576;47.792;9.628;2022-07-29T18:07:15;5.63;;;4.30;;
18887;SDS011;9576;47.792;9.628;2022-07-29T18:10:17;8.68;;;5.28;;
18887;SDS011;9576;47.792;9.628;2022-07-29T18:13:20;10.50;;;5.00;;
18887;SDS011;9576;47.792;9.628;2022-07-29T18:16:22;7.88;;;5.50;;
18887;SDS011;9576;47.792;9.628;2022-07-29T18:19:24;8.63;;;5.10;;
18887;SDS011;9576;47.792;9.628;2022-07-29T18:22:27;7.75;;;5.20;;
18887;SDS011;9576;47.792;9.628;2022-07-29T18:25:30;7.22;;;4.68;;
18887;SDS011;9576;47.792;9.628;2022-07-29T18:28:32;10.63;;;5.07;;
18887;SDS011;9576;47.792;9.628;2022-07-29T18:31:34;7.95;;;4.85;;
18887;SDS011;9576;47.792;9.628;2022-07-29T18:34:36;9.90;;;5.47;;
18887;SDS011;9576;47.792;9.628;2022-07-29T18:37:40;5.88;;;5.03;;
18887;SDS011;9576;47.792;9.628;2022-07-29T18:40:42;11.82;;;4.60;;
18887;SDS011;9576;47.792;9.628;2022-07-29T18:43:44;7.35;;;4.45;;
18887;SDS011;9576;47.792;9.628;2022-07-29T18:46:46;6.90;;;4.30;;
18887;SDS011;9576;47.792;9.628;2022-07-29T18:49:49;4.97;;;3.50;;
18887;SDS011;9576;47.792;9.628;2022-07-29T18:52:52;5.28;;;4.15;;
18887;SDS011;9576;47.792;9.628;2022-07-29T18:55:57;7.90;;;4.28;;
18887;SDS011;9576;47.792;9.628;2022-07-29T18:59:01;6.22;;;4.60;;